Karmel — 9HA2896 — position and weather

sailwx.info

Track history (hours):
 
Tides and Currents Weather Stations Pressure Air Temp Water Temp Dewpoint Dewpoint Depression Visibility Wind Speed Wind Dir Waves Ship Positions

Karmel

Last reported at 2016-Dec-01 16:23 UTC. Time now 2016-Dec-05 04:29 UTC.
Position N 58°36' E 016°12'.

Length 90 m; draft 5 m.

Type: Ship. MMSI: 256632000.

Date/timePositionNaut miles runAvg speedWind from/ knotsBaromVisibWave heightAir tempDewpointWater temp
2016-Dec-01 16:23N 58°36' E 016°12'0 0.0
2016-Dec-01 15:29N 58°36' E 016°12'0 0.0
2016-Dec-01 14:26N 58°36' E 016°12'0 0.0
2016-Dec-01 13:26N 58°36' E 016°12'0 0.0
2016-Dec-01 12:20N 58°36' E 016°12'0 0.0
2016-Dec-01 11:29N 58°36' E 016°12'0 0.0
2016-Dec-01 10:29N 58°36' E 016°12'0 0.0
2016-Dec-01 09:23N 58°36' E 016°12'0 0.0
2016-Dec-01 08:32N 58°36' E 016°12'0 0.0
2016-Dec-01 07:29N 58°36' E 016°12'0 0.0
2016-Dec-01 06:32N 58°36' E 016°12'0 0.0
2016-Dec-01 05:32N 58°36' E 016°12'0 0.0
2016-Dec-01 04:32N 58°36' E 016°12'0 0.0
2016-Dec-01 03:32N 58°36' E 016°12'0 0.0
2016-Dec-01 02:32N 58°36' E 016°12'0 0.0
2016-Dec-01 01:32N 58°36' E 016°12'0 0.0
2016-Dec-01 00:32N 58°36' E 016°12'0 0.0
2016-Nov-30 23:32N 58°36' E 016°12'0 0.0
2016-Nov-30 22:32N 58°36' E 016°12'0 0.0
2016-Nov-30 21:32N 58°36' E 016°12'0 0.0
2016-Nov-30 20:32N 58°36' E 016°12'0 0.0
2016-Nov-30 19:17N 58°36' E 016°12'0 0.0
2016-Nov-30 18:32N 58°36' E 016°12'0 0.0
2016-Nov-30 17:14N 58°36' E 016°12'0 0.0
2016-Nov-30 16:32N 58°36' E 016°12'0 0.0
2016-Nov-30 15:32N 58°36' E 016°12'0 0.0
2016-Nov-30 14:32N 58°36' E 016°12'0 0.0
2016-Nov-30 13:32N 58°36' E 016°12'0 0.0
2016-Nov-30 12:29N 58°36' E 016°12'0 0.0
2016-Nov-30 11:29N 58°36' E 016°12'0 0.0
2016-Nov-30 09:17N 58°36' E 016°12'2 2.6
2016-Nov-30 08:33N 58°37' E 016°15'10 9.5
2016-Nov-30 07:33N 58°38' E 016°33'1110.6
2016-Nov-30 06:33N 58°36' E 016°53'1111.1
2016-Nov-30 05:33N 58°37' E 017°14'19210.1
2016-Nov-29 10:32N 55°36' E 015°17'1111.5
2016-Nov-29 09:33N 55°31' E 014°59'1211.4
2016-Nov-29 08:33N 55°25' E 014°41'1111.1
2016-Nov-29 07:33N 55°17' E 014°29'1110.8
2016-Nov-29 06:33N 55°08' E 014°17'1010.1
2016-Nov-29 05:33N 55°01' E 014°04'1010.3
2016-Nov-29 04:33N 54°57' E 013°48'3710.8
2016-Nov-29 01:07N 54°45' E 012°47'610.9
2016-Nov-29 00:34N 54°42' E 012°38'1111.2
2016-Nov-28 23:34N 54°36' E 012°21'1111.5
2016-Nov-28 22:34N 54°26' E 012°12'1211.5
2016-Nov-28 21:33N 54°24' E 011°52'1211.8
2016-Nov-28 20:33N 54°28' E 011°33'1212.1
2016-Nov-28 19:33N 54°34' E 011°15'1211.8
2016-Nov-28 18:33N 54°34' E 010°54'1212.0
2016-Nov-28 17:33N 54°33' E 010°34'1111.3
2016-Nov-28 16:33N 54°28' E 010°16'8 7.8
2016-Nov-28 15:33N 54°22' E 010°09'3 2.8
2016-Nov-28 14:33N 54°22' E 010°04'9 7.9
2016-Nov-28 13:22N 54°22' E 009°48'26 6.7
2016-Nov-28 09:32N 54°03' E 009°18'8 8.0
2016-Nov-28 08:33N 53°56' E 009°12'4 4.4
2016-Nov-28 07:33N 53°53' E 009°06'7 6.9
2016-Nov-28 06:33N 53°51' E 008°55'7 7.6
2016-Nov-28 05:34N 53°52' E 008°43'8 7.9
2016-Nov-28 04:31N 53°58' E 008°33'9 8.5
2016-Nov-28 03:30N 53°59' E 008°18'80 9.8
2016-Nov-27 19:19N 53°41' E 006°06'810.9
2016-Nov-27 18:33N 53°39' E 005°53'1110.8
2016-Nov-27 17:33N 53°36' E 005°36'1110.6
2016-Nov-27 16:33N 53°32' E 005°19'89 8.7
2016-Nov-27 06:20N 52°27' E 003°38'7 9.2
2016-Nov-27 05:33N 52°22' E 003°30'14 9.9
2016-Nov-27 04:10N 52°13' E 003°14'1810.9
2016-Nov-27 02:33N 51°60' E 002°54'2612.0
2016-Nov-27 00:23N 51°40' E 002°27'1012.2
2016-Nov-26 23:32N 51°32' E 002°16'1212.1
2016-Nov-26 22:33N 51°23' E 002°03'1211.9
2016-Nov-26 21:33N 51°14' E 001°51'1211.6
2016-Nov-26 20:34N 51°05' E 001°39'1110.9
2016-Nov-26 19:33N 50°57' E 001°28'57 9.0
2016-Nov-26 13:15N 50°22' E 000°17'9 9.6
2016-Nov-26 12:16N 50°19' E 000°03'7 9.3
2016-Nov-26 11:33N 50°18' W 000°07'9911.0
2016-Nov-26 02:33N 50°15' W 002°41'8 8.0
2016-Nov-26 01:33N 50°14' W 002°54'7 6.9
2016-Nov-26 00:33N 50°13' W 003°04'6 5.9
2016-Nov-25 23:33N 50°12' W 003°13'5 5.4
2016-Nov-25 22:33N 50°11' W 003°22'6 5.7
2016-Nov-25 21:33N 50°11' W 003°31'6 5.8
2016-Nov-25 20:33N 50°11' W 003°40'7 7.0
2016-Nov-25 19:33N 50°11' W 003°51'1010.0
2016-Nov-25 18:33N 50°16' W 004°04'6 0.4
2016-Nov-25 04:29N 50°22' W 004°07'0 0.0
2016-Nov-25 03:29N 50°22' W 004°07'0 0.0
2016-Nov-25 00:26N 50°22' W 004°07'0 0.0
2016-Nov-24 12:11N 50°22' W 004°07'0 0.0
2016-Nov-24 01:32N 50°22' W 004°07'0 0.0
2016-Nov-23 23:32N 50°22' W 004°07'1 1.5
2016-Nov-23 22:33N 50°21' W 004°09'2110.3
2016-Nov-23 20:33N 50°10' W 003°41'1212.4
2016-Nov-23 19:33N 50°11' W 003°22'1212.3
2016-Nov-23 18:33N 50°14' W 003°03'1211.7
2016-Nov-23 17:33N 50°15' W 002°45'8411.4
2016-Nov-23 10:10N 50°28' W 000°35'813.3
2016-Nov-23 09:33N 50°30' W 000°22'1312.9
2016-Nov-23 08:33N 50°33' W 000°03'5711.4
2016-Nov-23 03:33N 50°59' E 001°17'1313.0
2016-Nov-23 02:33N 51°07' E 001°33'2512.5
2016-Nov-23 00:33N 51°25' E 002°00'1211.6
2016-Nov-22 23:34N 51°20' E 002°17'1111.2
2016-Nov-22 22:33N 51°23' E 002°34'2110.5
2016-Nov-22 20:33N 51°22' E 003°08'4 4.2
2016-Nov-22 19:33N 51°20' E 003°13'6 3.0
2016-Nov-22 17:33N 51°14' E 003°13'0 0.0
2016-Nov-22 16:27N 51°14' E 003°13'0 0.0
2016-Nov-22 15:33N 51°14' E 003°13'0 0.0
2016-Nov-22 14:33N 51°14' E 003°13'0 0.0
2016-Nov-22 13:33N 51°14' E 003°13'0 0.0
2016-Nov-22 10:33N 51°14' E 003°13'0 0.0
2016-Nov-22 09:33N 51°14' E 003°13'0 0.0
2016-Nov-22 08:33N 51°14' E 003°13'0 0.0
2016-Nov-22 07:33N 51°14' E 003°13'0 0.0
2016-Nov-22 05:30N 51°14' E 003°13'0 0.0
2016-Nov-22 04:30N 51°14' E 003°13'0 0.0
2016-Nov-22 03:33N 51°14' E 003°13'0 0.0
2016-Nov-22 02:33N 51°14' E 003°13'0 0.0
2016-Nov-21 23:33N 51°14' E 003°13'0 0.0
2016-Nov-21 21:33N 51°14' E 003°13'0 0.0
2016-Nov-21 17:33N 51°14' E 003°13'  
Track history (hours):
 
Tides and Currents Weather Stations Pressure Air Temp Water Temp Dewpoint Dewpoint Depression Visibility Wind Speed Wind Dir Waves Ship Positions

Karmel

Last reported at 2016-Dec-01 16:23 UTC. Time now 2016-Dec-05 04:29 UTC.
Position N 58°36' E 016°12'.

Length 90 m; draft 5 m.

Type: Ship. MMSI: 256632000.

Date/timePositionNaut miles runAvg speedWind from/ knotsBaromVisibWave heightAir tempDewpointWater temp
2016-Dec-01 16:23N 58°36' E 016°12'0 0.0
2016-Dec-01 15:29N 58°36' E 016°12'0 0.0
2016-Dec-01 14:26N 58°36' E 016°12'0 0.0
2016-Dec-01 13:26N 58°36' E 016°12'0 0.0
2016-Dec-01 12:20N 58°36' E 016°12'0 0.0
2016-Dec-01 11:29N 58°36' E 016°12'0 0.0
2016-Dec-01 10:29N 58°36' E 016°12'0 0.0
2016-Dec-01 09:23N 58°36' E 016°12'0 0.0
2016-Dec-01 08:32N 58°36' E 016°12'0 0.0
2016-Dec-01 07:29N 58°36' E 016°12'0 0.0
2016-Dec-01 06:32N 58°36' E 016°12'0 0.0
2016-Dec-01 05:32N 58°36' E 016°12'0 0.0
2016-Dec-01 04:32N 58°36' E 016°12'0 0.0
2016-Dec-01 03:32N 58°36' E 016°12'0 0.0
2016-Dec-01 02:32N 58°36' E 016°12'0 0.0
2016-Dec-01 01:32N 58°36' E 016°12'0 0.0
2016-Dec-01 00:32N 58°36' E 016°12'0 0.0
2016-Nov-30 23:32N 58°36' E 016°12'0 0.0
2016-Nov-30 22:32N 58°36' E 016°12'0 0.0
2016-Nov-30 21:32N 58°36' E 016°12'0 0.0
2016-Nov-30 20:32N 58°36' E 016°12'0 0.0
2016-Nov-30 19:17N 58°36' E 016°12'0 0.0
2016-Nov-30 18:32N 58°36' E 016°12'0 0.0
2016-Nov-30 17:14N 58°36' E 016°12'0 0.0
2016-Nov-30 16:32N 58°36' E 016°12'0 0.0
2016-Nov-30 15:32N 58°36' E 016°12'0 0.0
2016-Nov-30 14:32N 58°36' E 016°12'0 0.0
2016-Nov-30 13:32N 58°36' E 016°12'0 0.0
2016-Nov-30 12:29N 58°36' E 016°12'0 0.0
2016-Nov-30 11:29N 58°36' E 016°12'0 0.0
2016-Nov-30 09:17N 58°36' E 016°12'2 2.6
2016-Nov-30 08:33N 58°37' E 016°15'10 9.5
2016-Nov-30 07:33N 58°38' E 016°33'1110.6
2016-Nov-30 06:33N 58°36' E 016°53'1111.1
2016-Nov-30 05:33N 58°37' E 017°14'19210.1
2016-Nov-29 10:32N 55°36' E 015°17'1111.5
2016-Nov-29 09:33N 55°31' E 014°59'1211.4
2016-Nov-29 08:33N 55°25' E 014°41'1111.1
2016-Nov-29 07:33N 55°17' E 014°29'1110.8
2016-Nov-29 06:33N 55°08' E 014°17'1010.1
2016-Nov-29 05:33N 55°01' E 014°04'1010.3
2016-Nov-29 04:33N 54°57' E 013°48'3710.8
2016-Nov-29 01:07N 54°45' E 012°47'610.9
2016-Nov-29 00:34N 54°42' E 012°38'1111.2
2016-Nov-28 23:34N 54°36' E 012°21'1111.5
2016-Nov-28 22:34N 54°26' E 012°12'1211.5
2016-Nov-28 21:33N 54°24' E 011°52'1211.8
2016-Nov-28 20:33N 54°28' E 011°33'1212.1
2016-Nov-28 19:33N 54°34' E 011°15'1211.8
2016-Nov-28 18:33N 54°34' E 010°54'1212.0
2016-Nov-28 17:33N 54°33' E 010°34'1111.3
2016-Nov-28 16:33N 54°28' E 010°16'8 7.8
2016-Nov-28 15:33N 54°22' E 010°09'3 2.8
2016-Nov-28 14:33N 54°22' E 010°04'9 7.9
2016-Nov-28 13:22N 54°22' E 009°48'26 6.7
2016-Nov-28 09:32N 54°03' E 009°18'8 8.0
2016-Nov-28 08:33N 53°56' E 009°12'4 4.4
2016-Nov-28 07:33N 53°53' E 009°06'7 6.9
2016-Nov-28 06:33N 53°51' E 008°55'7 7.6
2016-Nov-28 05:34N 53°52' E 008°43'8 7.9
2016-Nov-28 04:31N 53°58' E 008°33'9 8.5
2016-Nov-28 03:30N 53°59' E 008°18'80 9.8
2016-Nov-27 19:19N 53°41' E 006°06'810.9
2016-Nov-27 18:33N 53°39' E 005°53'1110.8
2016-Nov-27 17:33N 53°36' E 005°36'1110.6
2016-Nov-27 16:33N 53°32' E 005°19'89 8.7
2016-Nov-27 06:20N 52°27' E 003°38'7 9.2
2016-Nov-27 05:33N 52°22' E 003°30'14 9.9
2016-Nov-27 04:10N 52°13' E 003°14'1810.9
2016-Nov-27 02:33N 51°60' E 002°54'2612.0
2016-Nov-27 00:23N 51°40' E 002°27'1012.2
2016-Nov-26 23:32N 51°32' E 002°16'1212.1
2016-Nov-26 22:33N 51°23' E 002°03'1211.9
2016-Nov-26 21:33N 51°14' E 001°51'1211.6
2016-Nov-26 20:34N 51°05' E 001°39'1110.9
2016-Nov-26 19:33N 50°57' E 001°28'57 9.0
2016-Nov-26 13:15N 50°22' E 000°17'9 9.6
2016-Nov-26 12:16N 50°19' E 000°03'7 9.3
2016-Nov-26 11:33N 50°18' W 000°07'9911.0
2016-Nov-26 02:33N 50°15' W 002°41'8 8.0
2016-Nov-26 01:33N 50°14' W 002°54'7 6.9
2016-Nov-26 00:33N 50°13' W 003°04'6 5.9
2016-Nov-25 23:33N 50°12' W 003°13'5 5.4
2016-Nov-25 22:33N 50°11' W 003°22'6 5.7
2016-Nov-25 21:33N 50°11' W 003°31'6 5.8
2016-Nov-25 20:33N 50°11' W 003°40'7 7.0
2016-Nov-25 19:33N 50°11' W 003°51'1010.0
2016-Nov-25 18:33N 50°16' W 004°04'6 0.4
2016-Nov-25 04:29N 50°22' W 004°07'0 0.0
2016-Nov-25 03:29N 50°22' W 004°07'0 0.0
2016-Nov-25 00:26N 50°22' W 004°07'0 0.0
2016-Nov-24 12:11N 50°22' W 004°07'0 0.0
2016-Nov-24 01:32N 50°22' W 004°07'0 0.0
2016-Nov-23 23:32N 50°22' W 004°07'1 1.5
2016-Nov-23 22:33N 50°21' W 004°09'2110.3
2016-Nov-23 20:33N 50°10' W 003°41'1212.4
2016-Nov-23 19:33N 50°11' W 003°22'1212.3
2016-Nov-23 18:33N 50°14' W 003°03'1211.7
2016-Nov-23 17:33N 50°15' W 002°45'8411.4
2016-Nov-23 10:10N 50°28' W 000°35'813.3
2016-Nov-23 09:33N 50°30' W 000°22'1312.9
2016-Nov-23 08:33N 50°33' W 000°03'5711.4
2016-Nov-23 03:33N 50°59' E 001°17'1313.0
2016-Nov-23 02:33N 51°07' E 001°33'2512.5
2016-Nov-23 00:33N 51°25' E 002°00'1211.6
2016-Nov-22 23:34N 51°20' E 002°17'1111.2
2016-Nov-22 22:33N 51°23' E 002°34'2110.5
2016-Nov-22 20:33N 51°22' E 003°08'4 4.2
2016-Nov-22 19:33N 51°20' E 003°13'6 3.0
2016-Nov-22 17:33N 51°14' E 003°13'0 0.0
2016-Nov-22 16:27N 51°14' E 003°13'0 0.0
2016-Nov-22 15:33N 51°14' E 003°13'0 0.0
2016-Nov-22 14:33N 51°14' E 003°13'0 0.0
2016-Nov-22 13:33N 51°14' E 003°13'0 0.0
2016-Nov-22 10:33N 51°14' E 003°13'0 0.0
2016-Nov-22 09:33N 51°14' E 003°13'0 0.0
2016-Nov-22 08:33N 51°14' E 003°13'0 0.0
2016-Nov-22 07:33N 51°14' E 003°13'0 0.0
2016-Nov-22 05:30N 51°14' E 003°13'0 0.0
2016-Nov-22 04:30N 51°14' E 003°13'0 0.0
2016-Nov-22 03:33N 51°14' E 003°13'0 0.0
2016-Nov-22 02:33N 51°14' E 003°13'0 0.0
2016-Nov-21 23:33N 51°14' E 003°13'0 0.0
2016-Nov-21 21:33N 51°14' E 003°13'0 0.0
2016-Nov-21 17:33N 51°14' E 003°13'  

Dump ship's entire track history